ěÝzenÝ letovÚho provozu ╚eskÚ republiky
Letiste: LKCV Aktualizace: 28.03.2023 16:59:38  UTC
 METAR LKCV 28.03. 17:00 ...
METAR LKCV 281700Z 32010KT CAVOK 04/M08 Q1023 NOSIG RMK BLU BLU=
 TAF LKCV 28.03. 11:00 ...
TAF LKCV 281100Z 2812/2912 32016KT 9999 BKN040      TEMPO 2812/2816 31022G32KT 3000 SHSN BKN010 BKN020TCU      PROB30 TEMPO 2812/2814 32025KT 1500 SHSN BKN007 BKN020TCU      BECMG 2817/2820 14006KT CAVOK=